createdAt,value
2017-08-26T00:00:29.774Z,0
2017-08-26T00:01:29.763Z,0
2017-08-26T00:02:29.765Z,0
2017-08-26T00:03:29.763Z,0
2017-08-26T00:04:29.736Z,0
2017-08-26T00:05:29.775Z,0
2017-08-26T00:06:29.718Z,0
2017-08-26T00:07:29.746Z,0
2017-08-26T00:08:29.928Z,0
2017-08-26T00:09:29.703Z,0
2017-08-26T00:10:29.699Z,0
2017-08-26T00:11:29.700Z,0
2017-08-26T00:12:29.699Z,0
2017-08-26T00:13:29.874Z,0
2017-08-26T00:14:29.876Z,0
2017-08-26T00:15:29.655Z,0
2017-08-26T00:16:29.646Z,0
2017-08-26T00:17:29.630Z,0
2017-08-26T00:18:29.824Z,0
2017-08-26T00:19:29.808Z,0
2017-08-26T00:20:29.320Z,0
2017-08-26T00:21:29.606Z,0
2017-08-26T00:22:29.599Z,0
2017-08-26T00:23:29.284Z,0
2017-08-26T00:24:29.580Z,0
2017-08-26T00:25:29.572Z,0
2017-08-26T00:26:29.578Z,0
2017-08-26T00:27:29.564Z,0
2017-08-26T00:28:29.547Z,0
2017-08-26T00:29:29.535Z,0
2017-08-26T00:30:29.545Z,0
2017-08-26T00:31:29.540Z,0
2017-08-26T00:32:29.531Z,0
2017-08-26T00:33:29.509Z,0
2017-08-26T00:34:29.513Z,0
2017-08-26T00:35:29.497Z,0
2017-08-26T00:36:29.190Z,0
2017-08-26T00:37:29.475Z,0
2017-08-26T00:38:29.478Z,0
2017-08-26T00:39:29.456Z,0
2017-08-26T00:40:29.462Z,0
2017-08-26T00:41:29.449Z,0
2017-08-26T00:42:29.465Z,0
2017-08-26T00:43:29.431Z,0
2017-08-26T00:44:29.425Z,0
2017-08-26T00:45:29.100Z,0
2017-08-26T00:46:29.423Z,0
2017-08-26T00:47:42.723Z,0
2017-08-26T00:48:29.397Z,0
2017-08-26T00:49:29.085Z,0
2017-08-26T00:50:29.376Z,0
2017-08-26T00:51:29.591Z,0
2017-08-26T00:52:29.594Z,0
2017-08-26T00:53:29.046Z,0
2017-08-26T00:54:29.343Z,0
2017-08-26T00:55:29.326Z,0
2017-08-26T00:56:29.325Z,0
2017-08-26T00:57:29.319Z,0
2017-08-26T00:58:29.335Z,0
2017-08-26T00:59:29.321Z,0
2017-08-26T01:00:28.992Z,0
2017-08-26T01:01:29.306Z,0
2017-08-26T01:02:29.294Z,0
2017-08-26T01:03:29.281Z,0
2017-08-26T01:04:29.270Z,0
2017-08-26T01:05:29.274Z,0
2017-08-26T01:06:29.250Z,0
2017-08-26T01:07:29.246Z,0
2017-08-26T01:08:29.232Z,0
2017-08-26T01:09:29.231Z,0
2017-08-26T01:10:29.231Z,0
2017-08-26T01:11:29.227Z,0
2017-08-26T01:12:29.210Z,0
2017-08-26T01:13:29.191Z,0
2017-08-26T01:14:29.182Z,0
2017-08-26T01:15:29.175Z,0
2017-08-26T01:16:29.167Z,0
2017-08-26T01:17:29.150Z,0
2017-08-26T01:18:29.152Z,0
2017-08-26T01:19:28.834Z,0
2017-08-26T01:20:29.129Z,0
2017-08-26T01:21:29.132Z,0
2017-08-26T01:22:29.125Z,0
2017-08-26T01:23:29.322Z,0
2017-08-26T01:24:29.094Z,0
2017-08-26T01:25:29.090Z,0
2017-08-26T01:26:29.085Z,0
2017-08-26T01:27:29.081Z,0
2017-08-26T01:28:29.066Z,0
2017-08-26T01:29:28.941Z,0
2017-08-26T01:30:29.039Z,0
2017-08-26T01:31:28.732Z,0
2017-08-26T01:32:29.027Z,0
2017-08-26T01:33:29.022Z,0
2017-08-26T01:34:29.222Z,0
2017-08-26T01:35:28.993Z,0
2017-08-26T01:36:29.000Z,0
2017-08-26T01:37:28.994Z,0
2017-08-26T01:38:28.978Z,0
2017-08-26T01:39:28.966Z,0
2017-08-26T01:40:28.952Z,0
2017-08-26T01:41:28.931Z,0
2017-08-26T01:42:28.931Z,0
2017-08-26T01:43:28.933Z,0
2017-08-26T01:44:28.923Z,0
2017-08-26T01:45:28.909Z,0
2017-08-26T01:46:28.900Z,0
2017-08-26T01:47:28.887Z,0
2017-08-26T01:48:28.887Z,0
2017-08-26T01:49:28.865Z,0
2017-08-26T01:50:28.855Z,0
2017-08-26T01:51:28.862Z,0
2017-08-26T01:52:28.533Z,0
2017-08-26T01:53:28.518Z,0
2017-08-26T01:54:28.515Z,0
2017-08-26T01:55:28.496Z,0
2017-08-26T01:56:28.491Z,0
2017-08-26T01:57:28.401Z,0
2017-08-26T01:58:28.473Z,0
2017-08-26T01:59:28.776Z,0
2017-08-26T02:00:27.836Z,0
2017-08-26T02:01:28.765Z,0
2017-08-26T02:02:28.749Z,0
2017-08-26T02:03:28.431Z,0
2017-08-26T02:04:28.731Z,0
2017-08-26T02:05:28.417Z,0
2017-08-26T02:06:28.596Z,0
2017-08-26T02:07:28.390Z,0
2017-08-26T02:08:28.692Z,0
2017-08-26T02:09:28.676Z,0
2017-08-26T02:10:28.866Z,0
2017-08-26T02:11:28.867Z,0
2017-08-26T02:12:28.652Z,0
2017-08-26T02:13:28.636Z,0
2017-08-26T02:14:28.639Z,0
2017-08-26T02:15:28.628Z,0
2017-08-26T02:16:28.601Z,0
2017-08-26T02:17:28.284Z,0
2017-08-26T02:18:28.596Z,0
2017-08-26T02:19:28.572Z,0
2017-08-26T02:20:28.579Z,0
2017-08-26T02:21:28.560Z,0
2017-08-26T02:22:28.570Z,0
2017-08-26T02:23:28.550Z,0
2017-08-26T02:24:28.527Z,0
2017-08-26T02:25:28.520Z,0
2017-08-26T02:26:28.509Z,0
2017-08-26T02:27:28.511Z,0
2017-08-26T02:28:28.517Z,0
2017-08-26T02:29:28.486Z,0
2017-08-26T02:30:28.496Z,0
2017-08-26T02:31:28.161Z,0
2017-08-26T02:32:28.456Z,0
2017-08-26T02:33:28.455Z,0
2017-08-26T02:34:28.439Z,0
2017-08-26T02:35:28.434Z,0
2017-08-26T02:36:28.429Z,0
2017-08-26T02:37:28.426Z,0
2017-08-26T02:38:28.410Z,0
2017-08-26T02:39:28.391Z,0
2017-08-26T02:40:28.427Z,0
2017-08-26T02:41:28.081Z,0
2017-08-26T02:42:28.365Z,0
2017-08-26T02:43:28.376Z,0
2017-08-26T02:44:28.345Z,0
2017-08-26T02:45:28.340Z,0
2017-08-26T02:46:28.332Z,0
2017-08-26T02:47:28.052Z,0
2017-08-26T02:48:28.309Z,0
2017-08-26T02:49:28.328Z,0
2017-08-26T02:50:28.318Z,0
2017-08-26T02:51:27.990Z,0
2017-08-26T02:52:28.290Z,0
2017-08-26T02:53:28.273Z,0
2017-08-26T02:54:28.255Z,0
2017-08-26T02:55:28.249Z,0
2017-08-26T02:56:28.258Z,0
2017-08-26T02:57:28.237Z,0
2017-08-26T02:58:27.917Z,0
2017-08-26T02:59:27.608Z,0
2017-08-26T03:00:27.892Z,0
2017-08-26T03:01:28.222Z,0
2017-08-26T03:02:28.208Z,0
2017-08-26T03:03:28.189Z,0
2017-08-26T03:04:28.178Z,0
2017-08-26T03:05:27.864Z,0
2017-08-26T03:06:28.183Z,0
2017-08-26T03:07:27.840Z,0
2017-08-26T03:08:28.151Z,0
2017-08-26T03:09:28.135Z,0
2017-08-26T03:10:28.147Z,0
2017-08-26T03:11:28.129Z,0
2017-08-26T03:12:28.114Z,0
2017-08-26T03:13:28.105Z,0
2017-08-26T03:14:28.099Z,0
2017-08-26T03:15:28.085Z,0
2017-08-26T03:16:27.760Z,0
2017-08-26T03:17:28.074Z,0
2017-08-26T03:18:28.069Z,0
2017-08-26T03:19:28.068Z,0
2017-08-26T03:20:28.047Z,0
2017-08-26T03:21:27.729Z,0
2017-08-26T03:22:28.034Z,0
2017-08-26T03:23:28.034Z,0
2017-08-26T03:24:28.013Z,0
2017-08-26T03:25:28.021Z,0
2017-08-26T03:26:28.009Z,0
2017-08-26T03:27:27.997Z,0
2017-08-26T03:28:27.993Z,0
2017-08-26T03:29:27.980Z,0
2017-08-26T03:30:27.986Z,0
2017-08-26T03:31:27.964Z,0
2017-08-26T03:32:27.950Z,0
2017-08-26T03:33:27.939Z,0
2017-08-26T03:34:27.945Z,0
2017-08-26T03:35:27.922Z,0
2017-08-26T03:36:27.930Z,0
2017-08-26T03:37:27.608Z,0
2017-08-26T03:38:27.600Z,0
2017-08-26T03:39:27.897Z,0
2017-08-26T03:40:27.906Z,0
2017-08-26T03:41:27.893Z,0
2017-08-26T03:42:27.872Z,0
2017-08-26T03:43:27.869Z,0
2017-08-26T03:44:27.555Z,0
2017-08-26T03:45:27.848Z,0
2017-08-26T03:46:27.846Z,0
2017-08-26T03:47:27.825Z,0
2017-08-26T03:48:27.818Z,0
2017-08-26T03:49:27.819Z,0
2017-08-26T03:50:27.502Z,0
2017-08-26T03:51:27.806Z,0
2017-08-26T03:52:27.803Z,4
2017-08-26T03:53:27.779Z,4
2017-08-26T03:54:27.762Z,0
2017-08-26T03:55:27.762Z,0
2017-08-26T03:56:27.452Z,4
2017-08-26T03:57:27.749Z,0
2017-08-26T03:58:27.752Z,4
2017-08-26T03:59:27.734Z,8
2017-08-26T04:00:27.740Z,4
2017-08-26T04:01:27.731Z,4
2017-08-26T04:02:27.704Z,8
2017-08-26T04:03:27.705Z,8
2017-08-26T04:04:27.690Z,12
2017-08-26T04:05:27.681Z,16
2017-08-26T04:06:27.670Z,16
2017-08-26T04:07:27.666Z,24
2017-08-26T04:08:27.661Z,36
2017-08-26T04:09:27.661Z,44
2017-08-26T04:10:27.335Z,56
2017-08-26T04:11:27.326Z,64
2017-08-26T04:12:27.628Z,76
2017-08-26T04:13:27.615Z,84
2017-08-26T04:14:27.612Z,92
2017-08-26T04:15:27.618Z,100
2017-08-26T04:16:27.590Z,108
2017-08-26T04:17:27.603Z,120
2017-08-26T04:18:27.271Z,132
2017-08-26T04:19:27.264Z,140
2017-08-26T04:20:27.590Z,152
2017-08-26T04:21:27.260Z,164
2017-08-26T04:22:27.538Z,180
2017-08-26T04:23:27.530Z,192
2017-08-26T04:24:27.537Z,212
2017-08-26T04:25:27.515Z,232
2017-08-26T04:26:27.522Z,252
2017-08-26T04:27:27.504Z,276
2017-08-26T04:28:27.498Z,304
2017-08-26T04:29:27.494Z,336
2017-08-26T04:30:27.480Z,372
2017-08-26T04:31:27.182Z,416
2017-08-26T04:32:27.149Z,472
2017-08-26T04:33:27.451Z,532
2017-08-26T04:34:27.442Z,600
2017-08-26T04:35:27.448Z,668
2017-08-26T04:36:27.436Z,744
2017-08-26T04:37:27.118Z,832
2017-08-26T04:38:27.100Z,916
2017-08-26T04:39:27.410Z,1004
2017-08-26T04:40:27.391Z,1104
2017-08-26T04:41:27.394Z,1200
2017-08-26T04:42:27.062Z,1300
2017-08-26T04:43:27.364Z,1404
2017-08-26T04:44:27.368Z,1512
2017-08-26T04:45:27.051Z,1620
2017-08-26T04:46:27.359Z,1748
2017-08-26T04:47:27.330Z,1876
2017-08-26T04:48:27.333Z,2004
2017-08-26T04:49:27.327Z,2124
2017-08-26T04:50:27.326Z,2236
2017-08-26T04:51:27.302Z,2344
2017-08-26T04:52:27.313Z,2444
2017-08-26T04:53:27.301Z,2540
2017-08-26T04:54:27.276Z,2648
2017-08-26T04:55:27.263Z,2780
2017-08-26T04:56:27.271Z,2908
2017-08-26T04:57:26.314Z,3044
2017-08-26T04:58:27.246Z,3180
2017-08-26T04:59:27.236Z,3328
2017-08-26T05:00:27.239Z,3508
2017-08-26T05:01:27.217Z,3696
2017-08-26T05:02:26.909Z,3856
2017-08-26T05:03:27.186Z,4004
2017-08-26T05:04:27.204Z,4140
2017-08-26T05:05:27.169Z,4284
2017-08-26T05:06:27.183Z,4432
2017-08-26T05:07:27.174Z,4592
2017-08-26T05:08:27.165Z,4724
2017-08-26T05:09:27.152Z,4788
2017-08-26T05:10:27.154Z,4972
2017-08-26T05:11:27.128Z,5012
2017-08-26T05:12:27.140Z,5216
2017-08-26T05:13:27.108Z,5816
2017-08-26T05:14:27.125Z,6552
2017-08-26T05:15:27.120Z,6764
2017-08-26T05:16:27.084Z,7060
2017-08-26T05:17:27.104Z,7840
2017-08-26T05:18:27.073Z,8196
2017-08-26T05:19:27.072Z,8196
2017-08-26T05:20:27.056Z,8460
2017-08-26T05:21:27.054Z,8972
2017-08-26T05:22:27.036Z,9432
2017-08-26T05:23:27.035Z,9952
2017-08-26T05:24:27.015Z,9880
2017-08-26T05:25:27.019Z,9216
2017-08-26T05:26:27.006Z,9616
2017-08-26T05:27:26.999Z,10220
2017-08-26T05:28:27.000Z,10376
2017-08-26T05:29:26.990Z,11156
2017-08-26T05:30:26.975Z,11264
2017-08-26T05:31:26.965Z,10400
2017-08-26T05:32:26.658Z,9964
2017-08-26T05:33:26.650Z,10448
2017-08-26T05:34:26.638Z,11904
2017-08-26T05:35:26.646Z,13160
2017-08-26T05:36:26.931Z,12520
2017-08-26T05:37:26.919Z,12160
2017-08-26T05:38:26.606Z,12900
2017-08-26T05:39:26.584Z,13248
2017-08-26T05:40:26.576Z,13180
2017-08-26T05:41:26.879Z,13852
2017-08-26T05:42:26.580Z,13796
2017-08-26T05:43:26.570Z,13444
2017-08-26T05:44:26.872Z,14580
2017-08-26T05:45:26.871Z,14856
2017-08-26T05:46:26.844Z,14616
2017-08-26T05:47:26.542Z,15032
2017-08-26T05:48:26.537Z,15324
2017-08-26T05:49:26.203Z,14640
2017-08-26T05:50:26.823Z,15216
2017-08-26T05:51:26.822Z,17120
2017-08-26T05:52:26.812Z,17408
2017-08-26T05:53:26.789Z,16832
2017-08-26T05:54:26.479Z,16256
2017-08-26T05:55:26.790Z,16288
2017-08-26T05:56:26.769Z,17312
2017-08-26T05:57:26.792Z,17440
2017-08-26T05:58:26.765Z,18880
2017-08-26T05:59:26.760Z,19104
2017-08-26T06:00:26.736Z,18368
2017-08-26T06:01:26.427Z,18560
2017-08-26T06:02:26.725Z,19456
2017-08-26T06:03:26.744Z,20768
2017-08-26T06:04:26.721Z,20160
2017-08-26T06:05:26.689Z,20384
2017-08-26T06:06:26.705Z,21504
2017-08-26T06:07:26.377Z,21408
2017-08-26T06:08:26.354Z,21280
2017-08-26T06:09:26.365Z,22624
2017-08-26T06:10:26.664Z,27072
2017-08-26T06:11:26.653Z,29152
2017-08-26T06:12:26.644Z,25408
2017-08-26T06:13:26.649Z,24416
2017-08-26T06:14:26.628Z,29216
2017-08-26T06:15:26.655Z,27360
2017-08-26T06:16:26.607Z,24800
2017-08-26T06:17:26.602Z,25344
2017-08-26T06:18:26.606Z,23552
2017-08-26T06:19:26.580Z,24736
2017-08-26T06:20:26.593Z,26336
2017-08-26T06:21:26.569Z,25600
2017-08-26T06:22:26.559Z,28608
2017-08-26T06:23:26.245Z,32768
2017-08-26T06:24:26.554Z,31200
2017-08-26T06:25:26.548Z,28704
2017-08-26T06:26:26.535Z,26528
2017-08-26T06:27:26.538Z,24608
2017-08-26T06:28:26.516Z,25888
2017-08-26T06:29:26.207Z,29760
2017-08-26T06:30:26.508Z,31360
2017-08-26T06:31:26.498Z,30880
2017-08-26T06:32:26.493Z,31008
2017-08-26T06:33:26.483Z,31616
2017-08-26T06:34:26.477Z,30336
2017-08-26T06:35:26.464Z,32416
2017-08-26T06:36:26.146Z,29312
2017-08-26T06:37:26.452Z,29312
2017-08-26T06:38:26.443Z,31552
2017-08-26T06:39:26.437Z,31744
2017-08-26T06:40:26.111Z,34624
2017-08-26T06:41:26.432Z,37600
2017-08-26T06:42:26.423Z,35040
2017-08-26T06:43:26.414Z,35872
2017-08-26T06:44:26.087Z,34368
2017-08-26T06:45:26.409Z,31552
2017-08-26T06:46:26.381Z,34112
2017-08-26T06:47:26.376Z,36128
2017-08-26T06:48:26.368Z,36672
2017-08-26T06:49:26.048Z,35328
2017-08-26T06:50:26.056Z,34976
2017-08-26T06:51:26.359Z,36544
2017-08-26T06:52:26.353Z,39488
2017-08-26T06:53:26.346Z,37504
2017-08-26T06:54:26.329Z,38112
2017-08-26T06:55:26.329Z,41120
2017-08-26T06:56:26.318Z,38816
2017-08-26T06:57:26.312Z,41600
2017-08-26T06:58:25.991Z,45376
2017-08-26T06:59:25.676Z,50688
2017-08-26T07:00:25.987Z,50144
2017-08-26T07:01:26.269Z,44064
2017-08-26T07:02:25.657Z,36160
2017-08-26T07:03:26.270Z,34848
2017-08-26T07:04:26.256Z,34304
2017-08-26T07:05:26.250Z,35232
2017-08-26T07:06:26.250Z,49600
2017-08-26T07:07:25.926Z,55456
2017-08-26T07:08:25.926Z,50560
2017-08-26T07:09:26.243Z,30944
2017-08-26T07:10:26.231Z,40832
2017-08-26T07:11:26.224Z,44928
2017-08-26T07:12:25.602Z,44512
2017-08-26T07:13:25.593Z,47360
2017-08-26T07:14:26.198Z,47008
2017-08-26T07:15:26.202Z,45920
2017-08-26T07:16:25.884Z,46656
2017-08-26T07:17:26.209Z,48672
2017-08-26T07:18:26.199Z,55040
2017-08-26T07:19:26.179Z,30304
2017-08-26T07:20:25.850Z,43968
2017-08-26T07:21:26.162Z,64128
2017-08-26T07:22:25.861Z,58464
2017-08-26T07:23:26.167Z,60192
2017-08-26T07:24:25.836Z,57696
2017-08-26T07:25:25.841Z,26272
2017-08-26T07:26:25.831Z,19264
2017-08-26T07:27:25.828Z,18464
2017-08-26T07:28:25.826Z,16908
2017-08-26T07:29:26.126Z,15444
2017-08-26T07:30:26.123Z,15344
2017-08-26T07:31:26.119Z,16880
2017-08-26T07:32:26.122Z,21472
2017-08-26T07:33:26.102Z,51328
2017-08-26T07:34:26.111Z,51392
2017-08-26T07:35:26.089Z,39616
2017-08-26T07:36:26.078Z,34432
2017-08-26T07:37:26.090Z,34656
2017-08-26T07:38:26.080Z,45632
2017-08-26T07:39:26.075Z,57376
2017-08-26T07:40:26.063Z,51456
2017-08-26T07:41:26.048Z,48672
2017-08-26T07:42:25.735Z,48960
2017-08-26T07:43:26.047Z,51552
2017-08-26T07:44:26.038Z,52032
2017-08-26T07:45:26.043Z,49920
2017-08-26T07:46:26.043Z,55392
2017-08-26T07:47:26.013Z,60512
2017-08-26T07:48:26.010Z,55392
2017-08-26T07:49:26.006Z,55488
2017-08-26T07:50:26.011Z,58080
2017-08-26T07:51:25.985Z,56288
2017-08-26T07:52:25.677Z,59776
2017-08-26T07:53:25.687Z,65248
2017-08-26T07:54:25.982Z,65952
2017-08-26T07:55:25.971Z,59168
2017-08-26T07:56:25.992Z,54912
2017-08-26T07:57:25.980Z,50592
2017-08-26T07:58:25.960Z,48448
2017-08-26T07:59:25.954Z,59872
2017-08-26T08:00:25.964Z,60832
2017-08-26T08:01:25.639Z,62784
2017-08-26T08:02:25.949Z,66400
2017-08-26T08:03:25.991Z,66944
2017-08-26T08:04:25.933Z,66624
2017-08-26T08:05:25.606Z,64480
2017-08-26T08:06:25.928Z,62944
2017-08-26T08:07:25.934Z,62592
2017-08-26T08:08:25.606Z,63456
2017-08-26T08:09:25.914Z,68800
2017-08-26T08:10:25.913Z,74560
2017-08-26T08:11:25.911Z,71200
2017-08-26T08:12:25.890Z,67776
2017-08-26T08:13:25.878Z,66432
2017-08-26T08:14:25.566Z,64352
2017-08-26T08:15:25.882Z,64480
2017-08-26T08:16:25.884Z,69344
2017-08-26T08:17:25.872Z,76032
2017-08-26T08:18:25.553Z,73984
2017-08-26T08:19:25.857Z,69568
2017-08-26T08:20:25.848Z,63104
2017-08-26T08:21:25.871Z,76064
2017-08-26T08:22:25.532Z,55200
2017-08-26T08:23:25.527Z,52832
2017-08-26T08:24:25.538Z,47232
2017-08-26T08:25:25.836Z,65376
2017-08-26T08:26:25.522Z,49216
2017-08-26T08:27:25.515Z,48320
2017-08-26T08:28:25.503Z,96128
2017-08-26T08:29:25.801Z,96736
2017-08-26T08:30:25.491Z,97920
2017-08-26T08:31:25.504Z,102080
2017-08-26T08:32:25.478Z,83264
2017-08-26T08:33:25.478Z,103584
2017-08-26T08:34:25.479Z,105056
2017-08-26T08:35:25.778Z,102016
2017-08-26T08:36:25.768Z,117984
2017-08-26T08:37:25.777Z,120736
2017-08-26T08:38:25.760Z,110240
2017-08-26T08:39:25.761Z,64800
2017-08-26T08:40:25.752Z,87744
2017-08-26T08:41:25.751Z,105600
2017-08-26T08:42:25.749Z,65728
2017-08-26T08:43:25.734Z,62880
2017-08-26T08:44:25.723Z,64608
2017-08-26T08:45:25.733Z,104896
2017-08-26T08:46:25.732Z,55712
2017-08-26T08:47:25.730Z,64640
2017-08-26T08:48:25.717Z,71968
2017-08-26T08:49:25.401Z,89120
2017-08-26T08:50:25.702Z,51392
2017-08-26T08:51:25.703Z,63840
2017-08-26T08:52:25.703Z,65440
2017-08-26T08:53:25.694Z,61440
2017-08-26T08:54:25.685Z,55680
2017-08-26T08:55:25.369Z,60448
2017-08-26T08:56:25.356Z,49760
2017-08-26T08:57:25.689Z,48032
2017-08-26T08:58:25.673Z,47392
2017-08-26T08:59:25.667Z,47136
2017-08-26T09:00:25.657Z,47488
2017-08-26T09:01:25.653Z,43680
2017-08-26T09:02:25.635Z,41664
2017-08-26T09:03:25.638Z,40128
2017-08-26T09:04:25.622Z,38816
2017-08-26T09:05:25.634Z,38176
2017-08-26T09:06:25.312Z,38272
2017-08-26T09:07:25.618Z,38784
2017-08-26T09:08:25.607Z,39616
2017-08-26T09:09:25.600Z,40224
2017-08-26T09:10:25.592Z,40640
2017-08-26T09:11:25.600Z,41216
2017-08-26T09:12:25.578Z,41728
2017-08-26T09:13:25.569Z,41632
2017-08-26T09:14:25.563Z,39776
2017-08-26T09:15:25.568Z,36512
2017-08-26T09:16:25.548Z,33376
2017-08-26T09:17:25.551Z,31360
2017-08-26T09:18:25.233Z,31072
2017-08-26T09:19:24.922Z,32096
2017-08-26T09:20:25.531Z,33696
2017-08-26T09:21:25.531Z,35392
2017-08-26T09:22:25.530Z,36960
2017-08-26T09:23:25.524Z,37792
2017-08-26T09:24:25.516Z,38912
2017-08-26T09:25:25.515Z,41408
2017-08-26T09:26:24.890Z,40800
2017-08-26T09:27:25.509Z,39264
2017-08-26T09:28:25.179Z,38976
2017-08-26T09:29:25.493Z,39776
2017-08-26T09:30:25.163Z,40800
2017-08-26T09:31:25.476Z,41376
2017-08-26T09:32:25.165Z,41888
2017-08-26T09:33:25.466Z,42624
2017-08-26T09:34:25.461Z,43200
2017-08-26T09:35:25.457Z,44352
2017-08-26T09:36:25.440Z,44416
2017-08-26T09:37:25.439Z,44064
2017-08-26T09:38:25.438Z,43104
2017-08-26T09:39:25.122Z,43392
2017-08-26T09:40:25.105Z,43904
2017-08-26T09:41:25.104Z,45664
2017-08-26T09:42:25.418Z,47008
2017-08-26T09:43:25.084Z,48768
2017-08-26T09:44:25.394Z,51456
2017-08-26T09:45:25.403Z,72064
2017-08-26T09:46:25.396Z,57024
2017-08-26T09:47:25.068Z,85728
2017-08-26T09:48:25.064Z,54592
2017-08-26T09:49:25.371Z,49664
2017-08-26T09:50:25.370Z,50080
2017-08-26T09:51:25.365Z,50944
2017-08-26T09:52:25.038Z,67456
2017-08-26T09:53:25.041Z,56960
2017-08-26T09:54:25.345Z,59648
2017-08-26T09:55:25.331Z,64480
2017-08-26T09:56:25.341Z,63456
2017-08-26T09:57:25.341Z,68544
2017-08-26T09:58:25.362Z,111040
2017-08-26T09:59:25.314Z,85408
2017-08-26T10:00:25.321Z,66144
2017-08-26T10:01:24.997Z,49248
2017-08-26T10:02:25.306Z,47648
2017-08-26T10:03:24.991Z,46560
2017-08-26T10:04:25.287Z,44768
2017-08-26T10:05:25.289Z,43392
2017-08-26T10:06:25.290Z,42176
2017-08-26T10:07:24.968Z,41696
2017-08-26T10:08:25.282Z,40704
2017-08-26T10:09:24.969Z,40160
2017-08-26T10:10:25.258Z,39904
2017-08-26T10:11:24.966Z,40256
2017-08-26T10:12:25.273Z,41632
2017-08-26T10:13:24.946Z,43520
2017-08-26T10:14:24.956Z,47392
2017-08-26T10:15:25.246Z,43104
2017-08-26T10:16:25.261Z,40576
2017-08-26T10:17:25.253Z,40384
2017-08-26T10:18:24.944Z,40224
2017-08-26T10:19:24.922Z,39136
2017-08-26T10:20:25.240Z,36960
2017-08-26T10:21:25.235Z,34336
2017-08-26T10:22:25.218Z,32320
2017-08-26T10:23:25.209Z,30944
2017-08-26T10:24:25.208Z,30208
2017-08-26T10:25:25.224Z,30368
2017-08-26T10:26:24.885Z,31264
2017-08-26T10:27:25.207Z,32800
2017-08-26T10:28:25.199Z,33984
2017-08-26T10:29:25.188Z,34368
2017-08-26T10:30:24.875Z,34368
2017-08-26T10:31:25.182Z,34400
2017-08-26T10:32:24.858Z,34464
2017-08-26T10:33:25.175Z,34464
2017-08-26T10:34:25.174Z,34848
2017-08-26T10:35:25.174Z,35264
2017-08-26T10:36:25.166Z,35552
2017-08-26T10:37:24.836Z,35840
2017-08-26T10:38:25.151Z,35936
2017-08-26T10:39:25.139Z,36096
2017-08-26T10:40:25.144Z,36672
2017-08-26T10:41:24.821Z,37376
2017-08-26T10:42:24.821Z,38176
2017-08-26T10:43:25.131Z,38656
2017-08-26T10:44:24.505Z,38976
2017-08-26T10:45:25.115Z,39104
2017-08-26T10:46:25.108Z,38912
2017-08-26T10:47:25.091Z,38752
2017-08-26T10:48:25.107Z,38976
2017-08-26T10:49:25.095Z,39488
2017-08-26T10:50:25.084Z,39616
2017-08-26T10:51:24.771Z,38304
2017-08-26T10:52:24.763Z,36224
2017-08-26T10:53:25.082Z,34432
2017-08-26T10:54:25.079Z,32640
2017-08-26T10:55:24.753Z,31200
2017-08-26T10:56:25.061Z,30656
2017-08-26T10:57:25.057Z,31136
2017-08-26T10:58:25.057Z,32160
2017-08-26T10:59:25.038Z,33472
2017-08-26T11:00:24.730Z,34816
2017-08-26T11:01:25.054Z,36352
2017-08-26T11:02:24.729Z,38112
2017-08-26T11:03:25.016Z,39968
2017-08-26T11:04:24.718Z,41664
2017-08-26T11:05:24.713Z,43616
2017-08-26T11:06:24.389Z,45760
2017-08-26T11:07:24.697Z,48256
2017-08-26T11:08:24.064Z,51040
2017-08-26T11:09:24.680Z,53472
2017-08-26T11:10:24.687Z,59840
2017-08-26T11:11:24.684Z,73856
2017-08-26T11:12:24.989Z,72064
2017-08-26T11:13:24.674Z,81056
2017-08-26T11:14:24.664Z,92384
2017-08-26T11:15:24.657Z,101600
2017-08-26T11:16:24.969Z,96000
2017-08-26T11:17:24.653Z,83552
2017-08-26T11:18:24.955Z,94112
2017-08-26T11:19:24.948Z,106688
2017-08-26T11:20:24.947Z,61920
2017-08-26T11:21:24.946Z,68096
2017-08-26T11:22:24.939Z,96800
2017-08-26T11:23:24.933Z,84480
2017-08-26T11:24:24.619Z,112384
2017-08-26T11:25:24.922Z,72224
2017-08-26T11:26:24.611Z,74592
2017-08-26T11:27:24.924Z,100512
2017-08-26T11:28:24.924Z,64288
2017-08-26T11:29:24.927Z,55776
2017-08-26T11:30:24.911Z,60672
2017-08-26T11:31:24.899Z,51904
2017-08-26T11:32:24.902Z,58272
2017-08-26T11:33:24.899Z,74400
2017-08-26T11:34:24.893Z,144864
2017-08-26T11:35:24.892Z,133568
2017-08-26T11:36:24.897Z,98976
2017-08-26T11:37:24.891Z,94048
2017-08-26T11:38:24.571Z,75200
2017-08-26T11:39:24.562Z,78592
2017-08-26T11:40:24.882Z,79008
2017-08-26T11:41:24.868Z,99872
2017-08-26T11:42:24.877Z,91424
2017-08-26T11:43:24.559Z,85632
2017-08-26T11:44:24.871Z,97184
2017-08-26T11:45:24.559Z,98400
2017-08-26T11:46:24.862Z,79488
2017-08-26T11:47:24.860Z,83168
2017-08-26T11:48:24.544Z,93472
2017-08-26T11:49:24.844Z,93984
2017-08-26T11:50:24.879Z,97504
2017-08-26T11:51:24.534Z,87648
2017-08-26T11:52:24.844Z,84000
2017-08-26T11:53:24.838Z,84960
2017-08-26T11:54:24.840Z,91232
2017-08-26T11:55:24.533Z,86816
2017-08-26T11:56:24.837Z,79680
2017-08-26T11:57:24.523Z,83456
2017-08-26T11:58:24.843Z,94656
2017-08-26T11:59:24.826Z,97440
2017-08-26T12:00:24.509Z,96992
2017-08-26T12:01:24.813Z,95520
2017-08-26T12:02:24.824Z,90848
2017-08-26T12:03:24.502Z,97248
2017-08-26T12:04:24.815Z,86944
2017-08-26T12:05:24.494Z,101568
2017-08-26T12:06:24.495Z,106144
2017-08-26T12:07:24.803Z,106592
2017-08-26T12:08:24.481Z,88832
2017-08-26T12:09:24.175Z,109024
2017-08-26T12:10:24.790Z,55872
2017-08-26T12:11:24.803Z,46848
2017-08-26T12:12:24.774Z,61920
2017-08-26T12:13:24.466Z,90656
2017-08-26T12:14:24.783Z,89984
2017-08-26T12:15:24.454Z,80896
2017-08-26T12:16:24.442Z,85760
2017-08-26T12:17:24.457Z,107776
2017-08-26T12:18:24.140Z,107904
2017-08-26T12:19:24.434Z,104448
2017-08-26T12:20:24.433Z,81632
2017-08-26T12:21:24.750Z,103712
2017-08-26T12:22:24.447Z,104928
2017-08-26T12:23:24.740Z,105344
2017-08-26T12:24:24.734Z,104480
2017-08-26T12:25:24.745Z,103808
2017-08-26T12:26:24.732Z,101120
2017-08-26T12:27:24.728Z,100512
2017-08-26T12:28:24.736Z,99712
2017-08-26T12:29:24.722Z,98432
2017-08-26T12:30:24.721Z,97280
2017-08-26T12:31:24.407Z,95712
2017-08-26T12:32:24.707Z,93888
2017-08-26T12:33:24.701Z,92800
2017-08-26T12:34:24.708Z,91584
2017-08-26T12:35:24.715Z,92096
2017-08-26T12:36:24.702Z,92512
2017-08-26T12:37:24.707Z,93664
2017-08-26T12:38:24.370Z,93824
2017-08-26T12:39:24.690Z,95456
2017-08-26T12:40:24.682Z,82592
2017-08-26T12:41:24.685Z,72672
2017-08-26T12:42:24.685Z,83040
2017-08-26T12:43:24.674Z,115136
2017-08-26T12:44:24.675Z,109248
2017-08-26T12:45:24.670Z,68800
2017-08-26T12:46:24.667Z,86048
2017-08-26T12:47:24.660Z,110240
2017-08-26T12:48:24.348Z,75456
2017-08-26T12:49:24.033Z,81280
2017-08-26T12:50:24.658Z,90208
2017-08-26T12:51:24.658Z,96576
2017-08-26T12:52:24.644Z,73472
2017-08-26T12:53:24.641Z,66208
2017-08-26T12:54:24.637Z,58656
2017-08-26T12:55:24.628Z,65536
2017-08-26T12:56:24.650Z,44256
2017-08-26T12:57:24.653Z,93536
2017-08-26T12:58:24.618Z,102432
2017-08-26T12:59:24.624Z,108256
2017-08-26T13:00:24.618Z,103168
2017-08-26T13:01:24.301Z,106624
2017-08-26T13:02:24.612Z,107232
2017-08-26T13:03:24.288Z,109696
2017-08-26T13:04:24.603Z,106560
2017-08-26T13:05:23.662Z,99456
2017-08-26T13:06:24.590Z,116320
2017-08-26T13:07:24.263Z,114528
2017-08-26T13:08:24.593Z,80160
2017-08-26T13:09:24.268Z,116832
2017-08-26T13:10:24.573Z,112160
2017-08-26T13:11:24.589Z,102496
2017-08-26T13:12:24.253Z,65376
2017-08-26T13:13:24.577Z,52992
2017-08-26T13:14:24.252Z,96384
2017-08-26T13:15:24.267Z,89760
2017-08-26T13:16:24.562Z,97632
2017-08-26T13:17:24.242Z,96160
2017-08-26T13:18:24.552Z,101024
2017-08-26T13:19:24.239Z,104512
2017-08-26T13:20:23.912Z,104544
2017-08-26T13:21:24.538Z,102112
2017-08-26T13:22:24.545Z,103104
2017-08-26T13:23:24.219Z,103456
2017-08-26T13:24:24.525Z,104608
2017-08-26T13:25:24.541Z,105664
2017-08-26T13:26:24.524Z,56384